Terminal Aerodrome Forecast
Issued by NWS Rapid City, SD

Home | Current Version | Previous Version | Graphics & Text | Print | Product List | Glossary On
Versions: 1 2 3 4 5 6 7 8 9 10 11 12 13 14 15 16 17 18 19
000
FTUS43 KUNR 292300
TAFRAP
TAF
KRAP 292320Z 3000/3024 35011KT P6SM SCT060
     FM300200 VRB04KT P6SM SKC
     FM300900 15006KT P6SM SKC
     FM301500 16015G25KT P6SM SCT250=

USA.gov is the U.S. government's official web portal to all federal, state and local government web resources and services.